Latest Weather Observations for Cape Leeuwin

IDW60801

Issued at 10:33 am WST Thursday 25 August 2016 (issued every 30 minutes, with the page automatically refreshed every 10 minutes)

About weather observations | Map of weather stations | Latest weather observations for WA | Other Formats
Station Details ID: 009518 Name: CAPE LEEUWIN Lat: -34.37 Lon: 115.14 Height: 13.0 m
Data from the previous 72 hours. | See also: Recent months at Cape Leeuwin
Date/Time
WST
Temp
°C
App
Temp
°C
Dew
Point
°C
Rel
Hum
%
Delta-T
°C
Wind Press
QNH
hPa
Press
MSL
hPa
Rain since
9am
mm
Dir  Spd
km/h
Gust
km/h
Spd
kts
Gust
kts
25/10:30am 13.2 6.6 6.0 61 3.4 NE 30 39 16 21 1024.2 1024.2 0.0
25/10:00am 11.8 4.8 5.8 66 2.8 NE 32 41 17 22 1024.4 1024.4 0.0
25/09:30am 11.4 4.5 6.3 71 2.4 NE 32 46 17 25 1024.7 1024.7 0.0
25/09:00am 10.9 4.6 5.9 71 2.3 NE 28 35 15 19 1025.0 1025.0 0.0
25/08:30am 10.2 4.7 6.1 76 1.9 ENE 24 30 13 16 1025.2 1025.2 0.0
25/08:00am 9.2 4.1 5.9 80 1.5 ENE 22 26 12 14 1025.3 1025.3 0.0
25/07:30am 8.8 4.1 5.9 82 1.3 ENE 20 24 11 13 1025.2 1025.2 0.0
25/07:00am 8.5 3.4 6.1 85 1.1 ENE 22 28 12 15 1024.9 1024.9 0.0
25/06:30am 8.6 3.5 6.2 85 1.1 ENE 22 26 12 14 1024.9 1024.9 0.0
25/06:00am 8.9 3.1 6.3 84 1.2 ENE 26 30 14 16 1024.8 1024.8 0.0
25/05:30am 9.2 3.1 6.4 83 1.3 ENE 28 32 15 17 1024.8 1024.8 0.0
25/05:00am 9.9 3.4 6.7 80 1.5 ENE 30 35 16 19 1024.6 1024.6 0.0
25/04:30am 10.5 3.5 6.9 78 1.7 ENE 33 41 18 22 1024.3 1024.3 0.0
25/04:00am 10.3 3.9 6.9 79 1.6 ENE 30 33 16 18 1024.4 1024.4 0.0
25/03:30am 9.3 3.6 6.7 84 1.2 ENE 26 30 14 16 1024.5 1024.5 0.0
25/03:00am 9.0 3.6 6.4 84 1.2 NE 24 30 13 16 1024.8 1024.8 0.0
25/02:30am 9.2 2.8 5.2 76 1.8 NE 28 32 15 17 1024.7 1024.7 0.0
25/02:00am 8.7 2.7 5.3 79 1.5 NE 26 32 14 17 1024.9 1024.9 0.0
25/01:30am 9.1 3.2 5.8 80 1.5 NE 26 32 14 17 1025.3 1025.3 0.0
25/01:00am 9.9 3.7 6.2 78 1.7 ENE 28 33 15 18 1025.3 1025.3 0.0
25/12:30am 10.3 4.1 6.2 76 1.9 ENE 28 33 15 18 1025.5 1025.5 0.0
25/12:00am 9.6 4.5 6.1 79 1.6 NE 22 26 12 14 1025.8 1025.8 0.0
 
Date/Time
WST
Temp
°C
App
Temp
°C
Dew
Point
°C
Rel
Hum
%
Delta-T
°C
Wind Press
QNH
hPa
Press
MSL
hPa
Rain since
9am
mm
Dir  Spd
km/h
Gust
km/h
Spd
kts
Gust
kts
24/11:30pm 10.2 6.1 6.3 77 1.8 NE 17 20 9 11 1026.1 1026.1 0.0
24/11:00pm 11.5 6.5 6.6 72 2.3 ENE 22 26 12 14 1026.0 1026.0 0.0
24/10:30pm 12.0 7.0 6.5 69 2.6 ENE 22 28 12 15 1026.1 1026.1 0.0
24/10:00pm 12.7 7.4 6.8 67 2.8 ENE 24 32 13 17 1026.1 1026.1 0.0
24/09:30pm 13.8 7.9 7.4 65 3.1 E 28 32 15 17 1026.2 1026.2 0.0
24/09:00pm 14.0 6.9 8.1 67 2.9 E 35 41 19 22 1026.0 1026.0 0.0
24/08:30pm 14.2 6.8 8.4 68 2.9 ESE 37 43 20 23 1025.8 1025.8 0.0
24/08:00pm 14.3 7.3 8.3 67 3.0 ESE 35 41 19 22 1025.8 1025.8 0.0
24/07:30pm 14.3 7.8 8.0 66 3.1 ESE 32 37 17 20 1026.0 1026.0 0.0
24/07:00pm 14.1 7.6 8.0 66 3.0 SE 32 41 17 22 1025.9 1025.9 0.0
24/06:30pm 14.0 7.3 7.4 64 3.2 ESE 32 39 17 21 1025.6 1025.6 0.0
24/06:00pm 13.9 7.8 6.8 62 3.4 ESE 28 39 15 21 1025.5 1025.5 0.0
24/05:30pm 13.8 7.3 6.7 62 3.4 SE 30 35 16 19 1025.4 1025.4 0.0
24/05:00pm 13.8 7.9 6.0 59 3.7 SE 26 32 14 17 1025.3 1025.3 0.0
24/04:30pm 14.0 8.4 5.2 55 4.1 SE 24 30 13 16 1025.3 1025.3 0.0
24/04:00pm 14.3 9.2 4.0 50 4.7 SE 20 28 11 15 1025.2 1025.2 0.0
24/03:30pm 14.5 9.4 4.0 49 4.8 SE 20 26 11 14 1025.3 1025.3 0.0
24/03:00pm 14.8 9.8 4.4 49 4.8 SE 20 26 11 14 1025.2 1025.2 0.0
24/02:30pm 14.9 10.1 2.8 44 5.4 SE 17 22 9 12 1025.4 1025.4 0.0
24/02:00pm 14.6 9.6 1.4 40 5.7 SE 17 22 9 12 1025.6 1025.6 0.0
24/01:30pm 14.8 10.3 0.0 36 6.2 SE 13 17 7 9 1025.8 1025.8 0.0
24/01:00pm 14.9 10.6 0.9 38 6.0 SE 13 17 7 9 1026.1 1026.1 0.0
24/12:30pm 14.1 9.7 0.2 38 5.8 ESE 13 15 7 8 1026.5 1026.5 0.0
24/12:00pm 14.5 10.8 2.5 44 5.3 ESE 11 15 6 8 1027.1 1027.1 0.0
24/11:30am 14.2 10.5 0.0 38 5.9 ENE 9 17 5 9 1027.3 1027.3 0.0
24/11:00am 13.8 9.2 1.4 43 5.3 N 15 22 8 12 1027.5 1027.5 0.0
24/10:30am 13.3 8.2 2.8 49 4.6 NNE 19 26 10 14 1027.4 1027.4 0.0
24/10:00am 12.2 6.7 1.9 49 4.4 NNE 20 30 11 16 1027.5 1027.5 0.0
24/09:30am 11.5 5.7 2.1 52 4.0 NNE 22 32 12 17 1027.4 1027.4 0.0
24/09:00am 10.1 3.4 1.7 56 3.5 NNE 26 32 14 17 1027.3 1027.3 0.0
24/08:30am 9.2 2.1 1.4 58 3.2 NNE 28 35 15 19 1027.1 1027.1 0.0
24/08:00am 8.4 1.3 1.2 60 2.9 NNE 28 35 15 19 1026.8 1026.8 0.0
24/07:30am 7.5 0.3 1.0 63 2.6 NNE 28 33 15 18 1026.6 1026.6 0.0
24/07:00am 7.1 0.0 1.1 65 2.4 NNE 28 35 15 19 1026.3 1026.3 0.0
24/06:30am 7.4 -0.2 0.8 63 2.6 NNE 30 35 16 19 1026.0 1026.0 0.0
24/06:00am 7.5 0.0 1.3 65 2.5 NNE 30 35 16 19 1025.9 1025.9 0.0
24/05:30am 7.6 0.1 1.4 65 2.5 NNE 30 35 16 19 1025.7 1025.7 0.0
24/05:00am 7.8 0.7 1.6 65 2.5 NE 28 37 15 20 1025.6 1025.6 0.0
24/04:30am 8.0 0.8 1.0 61 2.8 NNE 28 35 15 19 1025.5 1025.5 0.0
24/04:00am 8.0 0.5 1.3 62 2.7 NNE 30 35 16 19 1025.5 1025.5 0.0
24/03:30am 8.4 0.6 1.5 62 2.8 NE 32 39 17 21 1025.4 1025.4 0.0
24/03:00am 8.6 1.1 1.5 61 2.9 NE 30 37 16 20 1025.3 1025.3 0.0
24/02:30am 8.6 1.1 1.5 61 2.9 NE 30 37 16 20 1025.5 1025.5 0.0
24/02:00am 8.4 2.2 2.4 66 2.5 NE 24 33 13 18 1025.5 1025.5 0.0
24/01:30am 8.7 2.6 2.8 66 2.5 NE 24 32 13 17 1025.6 1025.6 0.0
24/01:00am 8.7 3.1 3.3 69 2.3 NE 22 30 12 16 1025.7 1025.7 0.0
24/12:30am 8.9 3.7 3.5 69 2.3 NE 20 26 11 14 1025.6 1025.6 0.0
24/12:00am 9.7 5.0 5.3 74 2.0 ENE 19 22 10 12 1025.5 1025.5 0.0
 
Date/Time
WST
Temp
°C
App
Temp
°C
Dew
Point
°C
Rel
Hum
%
Delta-T
°C
Wind Press
QNH
hPa
Press
MSL
hPa
Rain since
9am
mm
Dir  Spd
km/h
Gust
km/h
Spd
kts
Gust
kts
23/11:30pm 10.9 6.1 5.7 70 2.4 ENE 20 26 11 14 1025.5 1025.5 0.0
23/11:00pm 12.1 5.4 5.6 64 3.0 E 30 35 16 19 1025.5 1025.5 0.0
23/10:30pm 12.4 5.5 4.4 58 3.6 E 30 35 16 19 1025.5 1025.5 0.0
23/10:00pm 12.8 5.5 5.5 61 3.4 E 33 39 18 21 1025.6 1025.6 0.0
23/09:30pm 13.2 6.5 7.4 68 2.8 E 32 39 17 21 1025.7 1025.7 0.0
23/09:00pm 13.4 7.2 6.0 61 3.5 ESE 28 32 15 17 1025.7 1025.7 0.0
23/08:30pm 13.4 7.3 4.9 56 3.9 ESE 26 33 14 18 1025.6 1025.6 0.0
23/08:00pm 13.6 8.0 5.2 57 3.9 ESE 24 32 13 17 1025.4 1025.4 0.0
23/07:30pm 13.3 7.9 4.5 55 4.0 SE 22 32 12 17 1025.3 1025.3 0.0
23/07:00pm 13.1 7.8 4.8 57 3.8 ESE 22 28 12 15 1025.1 1025.1 0.0
23/06:30pm 13.1 8.2 5.1 58 3.7 SE 20 26 11 14 1024.8 1024.8 0.0
23/06:00pm 13.2 8.2 4.4 55 4.0 SE 20 26 11 14 1024.7 1024.7 0.0
23/05:30pm 13.3 8.3 3.7 52 4.3 SE 19 26 10 14 1024.4 1024.4 0.0
23/05:00pm 13.9 8.8 4.3 52 4.4 SE 20 28 11 15 1024.2 1024.2 0.0
23/04:30pm 14.3 9.2 4.3 51 4.6 SE 20 24 11 13 1023.9 1023.9 0.0
23/04:00pm 14.5 9.7 5.6 55 4.2 SE 20 28 11 15 1023.9 1023.9 0.0
23/03:30pm 14.7 9.8 5.1 52 4.5 SE 20 28 11 15 1023.9 1023.9 0.0
23/03:00pm 14.7 9.6 4.0 48 4.9 SE 20 26 11 14 1024.1 1024.1 0.0
23/02:30pm 14.5 9.2 2.8 45 5.2 ESE 20 28 11 15 1024.0 1024.0 0.0
23/02:00pm 14.7 9.9 4.5 50 4.7 SE 19 26 10 14 1024.0 1024.0 0.0
23/01:30pm 14.7 9.7 3.4 46 5.1 ESE 19 26 10 14 1024.1 1024.1 0.0
23/01:00pm 14.5 9.2 3.1 46 5.1 ESE 20 28 11 15 1024.3 1024.3 0.0
23/12:30pm 14.6 8.9 4.7 51 4.6 ESE 24 30 13 16 1024.6 1024.6 0.0
23/12:00pm 14.5 10.0 5.9 56 4.1 E 19 32 10 17 1024.8 1024.8 0.0
23/11:30am 13.8 10.0 5.7 58 3.8 E 15 19 8 10 1025.1 1025.1 0.0
23/11:00am 13.3 8.7 5.6 59 3.6 ENE 19 26 10 14 1025.4 1025.4 0.0
23/10:30am 13.5 9.8 6.3 61 3.4 ENE 15 20 8 11 1025.6 1025.6 0.0
23/10:00am 12.8 8.9 7.2 69 2.7 NE 17 22 9 12 1025.8 1025.8 0.0
23/09:30am 12.1 8.9 6.8 70 2.5 NE 13 19 7 10 1025.8 1025.8 0.0
23/09:00am 11.6 8.6 7.7 77 1.9 NE 13 17 7 9 1025.7 1025.7 2.0
23/08:30am 11.8 8.8 7.9 77 1.9 NE 13 19 7 10 1025.5 1025.5 2.0
23/08:00am 10.8 6.9 7.0 77 1.8 NE 17 22 9 12 1025.2 1025.2 2.0
23/07:30am 9.2 5.1 6.4 83 1.3 NNE 17 20 9 11 1025.0 1025.0 2.0
23/07:00am 9.5 6.0 7.4 87 1.0 NE 15 20 8 11 1025.0 1025.0 2.0
23/06:30am 9.3 7.4 7.6 89 0.8 NNE 7 11 4 6 1024.8 1024.8 2.0
23/06:00am 10.2 9.1 8.6 90 0.8 NNE 4 11 2 6 1024.7 1024.7 2.0
23/05:30am 9.9 8.1 8.0 88 0.9 NE 7 11 4 6 1024.5 1024.5 1.4
23/05:00am 9.6 7.1 8.1 90 0.7 NE 11 13 6 7 1024.2 1024.2 1.4
23/04:30am 9.4 6.8 7.9 90 0.7 NNE 11 15 6 8 1024.2 1024.2 1.4
23/04:00am 9.1 5.8 8.1 93 0.5 NNE 15 19 8 10 1024.2 1024.2 1.4
23/03:30am 9.7 5.8 8.5 92 0.6 NE 19 24 10 13 1024.2 1024.2 0.8
23/03:00am 10.2 6.1 8.6 90 0.8 NE 20 26 11 14 1024.2 1024.2 0.8
23/02:30am 10.4 6.2 8.3 87 1.0 NE 20 24 11 13 1024.2 1024.2 0.8
23/02:00am 10.6 7.4 8.6 87 1.0 NE 15 24 8 13 1024.1 1024.1 0.8
23/01:30am 11.3 6.6 9.1 86 1.1 ENE 24 32 13 17 1024.1 1024.1 0.8
23/01:23am 11.9 7.9 9.1 83 1.4 SE 20 32 11 17 1023.9 1023.9 0.8
23/01:00am 11.2 8.7 8.3 82 1.4 SSE 11 13 6 7 1023.9 1023.9 0.8
23/12:30am 11.4 8.5 8.3 81 1.5 S 13 20 7 11 1024.0 1024.0 0.6
23/12:00am 11.4 8.9 8.3 81 1.5 SSE 11 15 6 8 1024.2 1024.2 0.6
 
Date/Time
WST
Temp
°C
App
Temp
°C
Dew
Point
°C
Rel
Hum
%
Delta-T
°C
Wind Press
QNH
hPa
Press
MSL
hPa
Rain since
9am
mm
Dir  Spd
km/h
Gust
km/h
Spd
kts
Gust
kts
22/11:30pm 11.9 7.8 8.7 81 1.6 SE 20 30 11 16 1024.2 1024.2 0.6
22/11:00pm 12.0 7.6 7.4 73 2.2 SSE 20 26 11 14 1024.4 1024.4 0.6
22/10:30pm 11.6 8.6 7.7 77 1.9 SE 13 17 7 9 1024.5 1024.5 0.6
22/10:00pm 12.2 9.2 7.9 75 2.1 ESE 13 24 7 13 1024.7 1024.7 0.4
22/09:30pm 12.1 8.3 7.5 73 2.2 SE 17 20 9 11 1024.7 1024.7 0.4
22/09:00pm 11.2 8.7 8.3 82 1.4 SSE 11 15 6 8 1024.7 1024.7 0.4
22/08:30pm 11.1 8.1 9.3 89 0.9 SE 15 19 8 10 1024.7 1024.7 0.4
22/08:00pm 11.5 7.4 8.7 83 1.4 SE 20 24 11 13 1024.4 1024.4 0.4
22/07:30pm 11.9 9.8 8.4 79 1.7 SSE 9 20 5 11 1024.2 1024.2 0.4
22/07:00pm 11.6 8.7 8.3 80 1.6 SE 13 19 7 10 1024.0 1024.0 0.4
22/06:30pm 11.9 7.4 8.7 81 1.6 SSE 22 28 12 15 1023.7 1023.7 0.4
22/06:00pm 12.0 6.9 7.7 75 2.1 SSE 24 32 13 17 1023.7 1023.7 0.4
22/05:30pm 12.5 7.6 6.8 68 2.7 S 22 28 12 15 1023.5 1023.5 0.4
22/05:00pm 12.6 7.5 7.7 72 2.4 S 24 33 13 18 1023.4 1023.4 0.4
22/04:30pm 12.5 7.1 7.8 73 2.3 SSW 26 32 14 17 1023.1 1023.1 0.4
22/04:00pm 12.5 6.6 7.3 70 2.5 SSW 28 35 15 19 1022.9 1022.9 0.4
22/03:30pm 13.4 8.6 7.4 67 2.9 S 22 28 12 15 1022.8 1022.8 0.4
22/03:00pm 12.7 8.0 7.8 72 2.4 S 22 32 12 17 1022.9 1022.9 0.4
22/02:30pm 14.4 7.8 6.0 57 4.0 SSW 30 37 16 20 1022.9 1022.9 0.4
22/02:00pm 13.6 7.4 6.2 61 3.5 S 28 39 15 21 1022.8 1022.8 0.4
22/01:30pm 14.5 7.2 4.3 50 4.7 S 32 41 17 22 1023.0 1023.0 0.4
22/01:00pm 15.1 9.0 4.8 50 4.8 S 26 39 14 21 1023.0 1023.0 0.2
22/12:30pm 14.6 7.2 4.9 52 4.5 S 33 43 18 23 1023.2 1023.2 0.2
22/12:00pm 14.2 7.1 5.5 56 4.1 S 32 41 17 22 1023.5 1023.5 0.2
22/11:30am 14.2 6.5 5.5 56 4.1 S 35 43 19 23 1023.8 1023.8 0.2
22/11:12am 13.6 7.2 5.2 57 3.9 S 28 48 15 26 1023.8 1023.8 0.2
22/11:00am 13.4 7.2 6.2 61 3.4 S 28 35 15 19 1023.9 1023.9 0.2

Other Formats:

Comma delimited format used in spreadsheet applications
http://www.bom.gov.au/fwo/IDW60801/IDW60801.94601.axf

JavaScript Object Notation format (JSON) in row-major order
http://www.bom.gov.au/fwo/IDW60801/IDW60801.94601.json